Time;durP1;ratioP1;P1;durP2;ratioP2;P2;SDS_P1;SDS_P2;PMS_P1;PMS_P2;Temp;Humidity;BMP_temperature;BMP_pressure;BME280_temperature;BME280_humidity;BME280_pressure;Samples;Min_cycle;Max_cycle;Signal;HPM_P1;HPM_P2
2021/07/06 00:00:08;;;;;;;1.70;1.05;;;17.80;99.90;;;;;;4859932;29;20874;-76
2021/07/06 00:02:37;;;;;;;1.10;1.10;;;17.80;99.90;;;;;;4860237;29;20412;-76
2021/07/06 00:05:04;;;;;;;1.05;1.05;;;17.80;99.90;;;;;;4872753;29;20441;-75
2021/07/06 00:07:29;;;;;;;1.00;1.00;;;17.80;99.90;;;;;;4881489;29;20418;-76
2021/07/06 00:09:56;;;;;;;0.90;0.90;;;17.80;99.90;;;;;;4880681;29;20394;-76
2021/07/06 00:12:22;;;;;;;0.88;0.88;;;17.70;99.90;;;;;;4905810;29;20423;-76
2021/07/06 00:14:48;;;;;;;0.87;0.87;;;17.70;99.90;;;;;;4888294;29;20414;-76
2021/07/06 00:17:13;;;;;;;1.10;1.10;;;17.70;99.90;;;;;;4898683;29;20407;-76
2021/07/06 00:19:39;;;;;;;0.90;0.90;;;17.70;99.90;;;;;;4880810;29;20753;-75
2021/07/06 00:22:06;;;;;;;1.05;1.05;;;17.70;99.90;;;;;;4893904;29;20414;-76
2021/07/06 00:24:32;;;;;;;1.13;1.02;;;17.60;99.90;;;;;;4888302;29;20432;-77
2021/07/06 00:26:58;;;;;;;2.88;1.13;;;17.70;99.90;;;;;;4867083;29;20844;-76
2021/07/06 00:29:23;;;;;;;1.20;1.00;;;17.60;99.90;;;;;;4900626;29;20411;-75
2021/07/06 00:31:49;;;;;;;1.30;1.20;;;17.60;99.90;;;;;;4891159;29;20433;-78
2021/07/06 00:34:15;;;;;;;1.03;1.03;;;17.60;99.90;;;;;;4889370;29;20404;-79
2021/07/06 00:36:41;;;;;;;1.25;1.15;;;17.60;99.90;;;;;;4874301;29;20412;-79
2021/07/06 00:39:06;;;;;;;1.23;1.20;;;17.60;99.90;;;;;;4873626;29;20393;-80
2021/07/06 00:41:34;;;;;;;1.00;1.00;;;17.50;99.90;;;;;;4874178;29;20484;-82
2021/07/06 00:44:00;;;;;;;1.10;1.10;;;17.50;99.90;;;;;;4876822;29;20419;-79
2021/07/06 00:46:25;;;;;;;1.05;0.98;;;17.50;99.90;;;;;;4876419;29;20464;-79
2021/07/06 00:48:52;;;;;;;1.10;1.10;;;17.40;99.90;;;;;;4876673;29;20486;-79
2021/07/06 00:51:17;;;;;;;0.80;0.80;;;17.40;99.90;;;;;;4876535;29;20410;-78
2021/07/06 00:53:43;;;;;;;0.93;0.93;;;17.30;99.90;;;;;;4893944;29;20900;-79
2021/07/06 00:56:09;;;;;;;0.90;0.90;;;17.30;99.90;;;;;;4878880;29;20912;-79
2021/07/06 00:58:35;;;;;;;1.10;1.10;;;17.20;99.90;;;;;;4893290;29;20816;-79
2021/07/06 01:01:00;;;;;;;1.00;1.00;;;17.20;99.90;;;;;;4876144;29;20407;-79
2021/07/06 01:03:26;;;;;;;1.20;1.10;;;17.10;99.90;;;;;;4876756;29;20410;-81
2021/07/06 01:05:52;;;;;;;1.00;1.00;;;17.10;99.90;;;;;;4861062;29;20399;-79
2021/07/06 01:08:17;;;;;;;1.60;1.02;;;17.10;99.90;;;;;;4892650;29;20451;-79
2021/07/06 01:10:43;;;;;;;3.30;1.10;;;17.00;99.90;;;;;;4875771;29;20474;-79
2021/07/06 01:13:09;;;;;;;0.90;0.90;;;17.00;99.90;;;;;;4870871;29;20399;-80
2021/07/06 01:15:35;;;;;;;1.00;1.00;;;17.00;99.90;;;;;;4891684;29;20410;-78
2021/07/06 01:18:17;;;;;;;1.10;1.10;;;17.00;99.90;;;;;;4907603;29;20403;-78
2021/07/06 01:20:44;;;;;;;1.10;1.10;;;17.00;99.90;;;;;;4891085;29;20430;-78
2021/07/06 01:23:10;;;;;;;1.27;1.13;;;16.90;99.90;;;;;;4891757;29;20482;-78
2021/07/06 01:25:36;;;;;;;1.00;1.00;;;16.90;99.90;;;;;;4891999;29;20840;-78
2021/07/06 01:28:02;;;;;;;1.10;1.10;;;16.90;99.90;;;;;;4891390;29;20411;-78
2021/07/06 01:30:28;;;;;;;1.30;1.10;;;16.90;99.90;;;;;;4906007;29;20420;-78
2021/07/06 01:32:54;;;;;;;1.02;1.02;;;16.90;99.90;;;;;;4891646;29;20497;-78
2021/07/06 01:35:20;;;;;;;1.00;1.00;;;16.90;99.90;;;;;;4893723;29;20851;-76
2021/07/06 01:37:51;;;;;;;1.27;1.25;;;16.80;99.90;;;;;;4895791;29;20442;-76
2021/07/06 01:40:18;;;;;;;8.32;1.27;;;16.80;99.90;;;;;;4886125;29;20403;-76
2021/07/06 01:42:43;;;;;;;0.97;0.97;;;16.80;99.90;;;;;;4916478;29;20604;-76
2021/07/06 01:45:14;;;;;;;1.23;1.23;;;16.80;99.90;;;;;;4896946;29;20424;-75
2021/07/06 01:47:44;;;;;;;1.30;1.20;;;16.80;99.90;;;;;;4890189;29;20485;-76
2021/07/06 01:50:12;;;;;;;1.20;1.20;;;16.80;99.90;;;;;;4885297;29;20411;-75
2021/07/06 01:52:41;;;;;;;1.35;1.25;;;16.80;99.90;;;;;;4902580;29;20477;-76
2021/07/06 01:55:09;;;;;;;1.38;1.27;;;16.80;99.90;;;;;;4900546;29;20414;-76
2021/07/06 01:57:35;;;;;;;1.00;1.00;;;16.80;99.90;;;;;;4895964;29;20415;-75
2021/07/06 02:00:03;;;;;;;1.00;1.00;;;16.80;99.90;;;;;;4887910;29;20431;-75
2021/07/06 02:02:30;;;;;;;1.02;1.02;;;16.80;99.90;;;;;;4864220;29;20488;-75
2021/07/06 02:04:56;;;;;;;1.40;1.30;;;16.80;99.90;;;;;;4888370;29;20508;-75
2021/07/06 02:07:21;;;;;;;1.10;1.10;;;16.70;99.90;;;;;;4888020;29;20420;-76
2021/07/06 02:09:47;;;;;;;1.50;1.35;;;16.80;99.90;;;;;;4880015;29;20462;-76
2021/07/06 02:12:13;;;;;;;1.10;1.10;;;16.80;99.90;;;;;;4894838;29;20413;-76
2021/07/06 02:14:38;;;;;;;1.17;1.17;;;16.80;99.90;;;;;;4898773;29;20411;-76
2021/07/06 02:17:04;;;;;;;1.10;1.10;;;16.70;99.90;;;;;;4901792;29;20398;-76
2021/07/06 02:19:30;;;;;;;1.00;1.00;;;16.80;99.90;;;;;;4877367;29;20486;-75
2021/07/06 02:21:55;;;;;;;1.40;1.30;;;16.70;99.90;;;;;;4896938;29;20488;-76
2021/07/06 02:24:21;;;;;;;1.10;1.10;;;16.80;99.90;;;;;;4878304;29;21146;-76
2021/07/06 02:26:47;;;;;;;2.13;1.23;;;16.80;99.90;;;;;;4861667;29;20415;-76
2021/07/06 02:29:13;;;;;;;1.10;1.10;;;16.70;99.90;;;;;;4877845;29;20926;-77
2021/07/06 02:31:38;;;;;;;1.20;1.20;;;16.70;99.90;;;;;;4891711;29;20431;-77
2021/07/06 02:34:04;;;;;;;1.23;1.23;;;16.70;99.90;;;;;;4911165;29;20899;-79
2021/07/06 02:36:30;;;;;;;1.02;1.02;;;16.80;99.90;;;;;;4895846;29;20407;-81
2021/07/06 02:38:55;;;;;;;1.30;1.30;;;16.70;99.90;;;;;;4908535;29;20411;-77
2021/07/06 02:41:21;;;;;;;1.27;1.20;;;16.80;99.90;;;;;;4893596;29;20769;-77
2021/07/06 02:43:47;;;;;;;1.10;1.10;;;16.70;99.90;;;;;;4891492;29;20801;-77
2021/07/06 02:46:12;;;;;;;1.20;1.10;;;16.70;99.90;;;;;;4858710;29;20472;-77
2021/07/06 02:48:38;;;;;;;1.10;1.10;;;16.80;99.90;;;;;;4894053;29;20417;-77
2021/07/06 02:51:04;;;;;;;1.77;1.58;;;16.70;99.90;;;;;;4862303;29;20936;-77
2021/07/06 02:53:30;;;;;;;1.10;1.10;;;16.80;99.90;;;;;;4893833;29;20418;-77
2021/07/06 02:55:56;;;;;;;1.03;1.03;;;16.80;99.90;;;;;;4894409;29;20403;-77
2021/07/06 02:58:21;;;;;;;0.90;0.90;;;16.80;99.90;;;;;;4877477;29;20410;-79
2021/07/06 03:00:48;;;;;;;1.25;1.10;;;16.80;99.90;;;;;;4877531;29;20502;-78
2021/07/06 03:03:13;;;;;;;1.17;1.08;;;16.70;99.90;;;;;;4878091;29;20813;-78
2021/07/06 03:05:40;;;;;;;1.13;1.13;;;16.70;99.90;;;;;;4878058;29;20414;-78
2021/07/06 03:08:06;;;;;;;1.20;1.10;;;16.80;99.90;;;;;;4877840;29;20411;-78
2021/07/06 03:10:34;;;;;;;2.60;1.20;;;16.80;99.90;;;;;;4878262;29;20486;-78
2021/07/06 03:13:00;;;;;;;1.43;1.30;;;16.80;99.90;;;;;;4878811;29;20489;-79
2021/07/06 03:15:28;;;;;;;1.00;1.00;;;16.80;99.90;;;;;;4877431;29;20494;-80
2021/07/06 03:17:53;;;;;;;1.20;1.20;;;16.80;99.90;;;;;;4879277;29;20403;-79
2021/07/06 03:20:21;;;;;;;1.10;1.10;;;16.80;99.90;;;;;;4878256;29;20570;-81
2021/07/06 03:22:46;;;;;;;1.15;1.15;;;16.80;99.90;;;;;;4878207;29;20418;-78
2021/07/06 03:25:14;;;;;;;1.27;1.27;;;16.80;99.90;;;;;;4878248;29;20429;-78
2021/07/06 03:27:40;;;;;;;2.75;2.53;;;16.80;99.90;;;;;;4877521;29;21031;-78
2021/07/06 03:30:06;;;;;;;3.83;2.17;;;16.70;99.90;;;;;;4884363;29;20466;-78
2021/07/06 03:32:32;;;;;;;2.08;1.98;;;16.80;99.90;;;;;;4878813;29;20482;-79
2021/07/06 03:34:58;;;;;;;1.20;1.17;;;16.80;99.90;;;;;;4878375;29;20495;-81
2021/07/06 03:37:23;;;;;;;1.23;1.20;;;16.80;99.90;;;;;;4894353;29;20421;-78
2021/07/06 03:39:49;;;;;;;1.40;1.30;;;16.80;99.90;;;;;;4868940;29;20503;-78
2021/07/06 03:42:15;;;;;;;2.13;1.30;;;16.80;99.90;;;;;;4876470;29;20918;-79
2021/07/06 03:44:40;;;;;;;1.20;1.20;;;16.80;99.90;;;;;;4894179;29;20411;-79
2021/07/06 03:47:06;;;;;;;1.37;1.27;;;16.90;99.90;;;;;;4893105;29;21001;-84
2021/07/06 03:49:32;;;;;;;1.20;1.20;;;16.90;99.90;;;;;;4899520;29;20407;-76
2021/07/06 03:51:58;;;;;;;1.50;1.40;;;17.00;99.90;;;;;;4882515;29;20428;-77
2021/07/06 03:54:24;;;;;;;1.10;1.10;;;17.10;99.90;;;;;;4903885;29;20403;-76
2021/07/06 03:56:50;;;;;;;3.85;1.50;;;17.10;99.90;;;;;;4900607;29;20479;-76
2021/07/06 03:59:15;;;;;;;1.30;1.20;;;17.20;99.90;;;;;;4896620;29;20597;-76
2021/07/06 04:01:41;;;;;;;1.48;1.38;;;17.30;99.90;;;;;;4903592;29;20458;-76
2021/07/06 04:04:07;;;;;;;1.33;1.23;;;17.40;99.90;;;;;;4884549;29;20425;-76
2021/07/06 04:06:33;;;;;;;1.10;1.10;;;17.50;99.90;;;;;;4897388;29;20406;-77
2021/07/06 04:08:58;;;;;;;1.60;1.50;;;17.50;99.90;;;;;;4879960;29;20423;-76
2021/07/06 04:11:24;;;;;;;1.60;1.50;;;17.60;99.90;;;;;;4898214;29;20931;-76
2021/07/06 04:13:50;;;;;;;1.33;1.33;;;17.70;99.90;;;;;;4879706;29;20410;-78
2021/07/06 04:16:16;;;;;;;1.63;1.52;;;17.80;99.90;;;;;;4879066;29;20411;-75
2021/07/06 04:18:42;;;;;;;1.48;1.38;;;17.80;99.90;;;;;;4893600;29;20421;-79
2021/07/06 04:21:07;;;;;;;1.40;1.30;;;17.90;99.90;;;;;;4908280;29;20869;-80
2021/07/06 04:23:38;;;;;;;1.92;1.45;;;18.00;99.90;;;;;;4894285;29;20466;-78
2021/07/06 04:26:04;;;;;;;1.30;1.30;;;18.10;99.90;;;;;;4892585;29;20417;-79
2021/07/06 04:28:30;;;;;;;1.20;1.20;;;18.10;99.90;;;;;;4892481;29;20411;-78
2021/07/06 04:30:56;;;;;;;1.63;1.52;;;18.20;99.90;;;;;;4893561;29;20400;-76
2021/07/06 04:33:22;;;;;;;2.05;1.67;;;18.30;99.90;;;;;;4893429;29;20415;-80
2021/07/06 04:35:47;;;;;;;1.40;1.30;;;18.40;99.90;;;;;;4892753;29;20959;-78
2021/07/06 04:38:13;;;;;;;1.50;1.40;;;18.60;99.90;;;;;;4893440;29;20497;-77
2021/07/06 04:40:39;;;;;;;1.50;1.40;;;18.60;99.90;;;;;;4892657;29;20470;-77
2021/07/06 04:43:06;;;;;;;1.58;1.48;;;18.70;99.90;;;;;;4893178;29;20406;-79
2021/07/06 04:45:35;;;;;;;1.23;1.23;;;18.80;99.90;;;;;;4891782;29;20419;-80
2021/07/06 04:48:01;;;;;;;1.10;1.10;;;18.90;99.90;;;;;;4903358;29;20493;-79
2021/07/06 04:50:27;;;;;;;1.20;1.20;;;18.90;99.90;;;;;;4892307;29;20486;-80
2021/07/06 04:52:53;;;;;;;2.78;1.27;;;19.10;99.90;;;;;;4892567;29;20845;-80
2021/07/06 04:55:19;;;;;;;1.02;1.02;;;19.30;99.90;;;;;;4883196;29;20435;-79
2021/07/06 04:57:45;;;;;;;1.13;1.13;;;19.40;99.90;;;;;;4907998;29;20414;-78
2021/07/06 05:00:12;;;;;;;1.38;1.27;;;19.50;99.90;;;;;;4898175;29;20413;-78
2021/07/06 05:02:38;;;;;;;1.42;1.35;;;19.50;99.90;;;;;;4910500;29;20468;-78
2021/07/06 05:05:04;;;;;;;1.13;1.13;;;19.60;99.90;;;;;;4910356;29;20421;-78
2021/07/06 05:07:30;;;;;;;1.10;1.10;;;19.60;99.90;;;;;;4909785;29;20401;-79
2021/07/06 05:09:55;;;;;;;1.23;1.13;;;19.80;99.90;;;;;;4909483;29;20412;-78
2021/07/06 05:12:21;;;;;;;1.20;1.20;;;19.80;99.90;;;;;;4925169;29;20482;-82
2021/07/06 05:14:47;;;;;;;1.40;1.30;;;19.90;99.90;;;;;;4924252;29;20409;-78
2021/07/06 05:17:13;;;;;;;1.47;1.30;;;20.00;99.90;;;;;;4909012;29;20409;-79
2021/07/06 05:19:42;;;;;;;1.40;1.30;;;20.10;99.90;;;;;;4911429;29;20449;-77
2021/07/06 05:22:12;;;;;;;1.10;1.10;;;20.20;99.90;;;;;;4881375;29;20495;-78
2021/07/06 05:24:38;;;;;;;1.10;1.10;;;20.40;99.90;;;;;;4888830;29;20455;-79
2021/07/06 05:27:04;;;;;;;1.10;1.10;;;20.50;99.90;;;;;;4874921;29;20493;-80
2021/07/06 05:29:30;;;;;;;0.98;0.98;;;20.60;99.90;;;;;;4889527;29;20493;-81
2021/07/06 05:31:55;;;;;;;1.60;1.30;;;20.80;99.90;;;;;;4871697;29;20404;-78
2021/07/06 05:34:21;;;;;;;1.20;1.15;;;20.90;99.90;;;;;;4873261;29;20413;-78
2021/07/06 05:36:48;;;;;;;1.40;1.23;;;21.00;99.90;;;;;;4871563;29;20416;-78
2021/07/06 05:39:14;;;;;;;1.08;1.08;;;21.10;99.90;;;;;;4881959;29;20493;-78
2021/07/06 05:41:39;;;;;;;1.70;1.00;;;21.20;99.90;;;;;;4875081;29;21506;-78
2021/07/06 05:44:09;;;;;;;1.00;1.00;;;21.40;99.90;;;;;;4906154;29;20506;-77
2021/07/06 05:46:35;;;;;;;1.00;1.00;;;21.60;99.90;;;;;;4874919;29;20415;-78
2021/07/06 05:49:01;;;;;;;1.20;1.20;;;21.60;99.90;;;;;;4875159;29;20665;-83
2021/07/06 05:51:26;;;;;;;1.15;1.10;;;21.70;99.90;;;;;;4875282;29;20477;-78
2021/07/06 05:53:52;;;;;;;1.30;1.20;;;21.70;99.90;;;;;;4876558;29;21025;-79
2021/07/06 05:56:20;;;;;;;1.23;1.13;;;21.80;99.90;;;;;;4890356;29;20434;-82
2021/07/06 05:58:46;;;;;;;1.20;1.20;;;22.00;99.90;;;;;;4889445;29;20699;-81
2021/07/06 06:01:12;;;;;;;1.23;1.13;;;22.10;99.90;;;;;;4874880;29;20490;-77
2021/07/06 06:03:38;;;;;;;1.33;1.25;;;22.30;99.90;;;;;;4890483;29;20906;-78
2021/07/06 06:06:03;;;;;;;0.90;0.90;;;22.30;99.90;;;;;;4890411;29;20896;-78
2021/07/06 06:08:29;;;;;;;1.00;1.00;;;22.40;99.90;;;;;;4887777;29;20401;-79
2021/07/06 06:10:55;;;;;;;0.90;0.90;;;22.50;99.90;;;;;;4887022;29;20423;-78
2021/07/06 06:13:20;;;;;;;1.00;1.00;;;22.50;99.90;;;;;;4898938;29;20411;-78
2021/07/06 06:15:46;;;;;;;1.02;1.02;;;22.60;99.90;;;;;;4889484;29;20415;-77
2021/07/06 06:18:12;;;;;;;1.30;1.20;;;22.80;99.90;;;;;;4890405;29;20442;-78
2021/07/06 06:20:38;;;;;;;1.13;1.13;;;23.00;99.90;;;;;;4891190;29;20461;-77
2021/07/06 06:23:04;;;;;;;1.10;1.10;;;23.10;99.90;;;;;;4890643;29;20398;-78
2021/07/06 06:25:30;;;;;;;1.10;1.10;;;23.20;99.90;;;;;;4906433;29;20430;-78
2021/07/06 06:27:56;;;;;;;0.90;0.90;;;23.20;99.90;;;;;;4859282;29;20424;-78
2021/07/06 06:30:22;;;;;;;1.08;0.90;;;23.30;99.90;;;;;;4858707;29;20406;-78
2021/07/06 06:32:47;;;;;;;1.00;1.00;;;23.20;99.90;;;;;;4875035;29;20443;-78
2021/07/06 06:35:13;;;;;;;1.23;1.13;;;23.30;99.90;;;;;;4852596;29;20408;-78
2021/07/06 06:37:39;;;;;;;0.80;0.80;;;23.30;99.90;;;;;;4874793;29;20474;-79
2021/07/06 06:40:06;;;;;;;1.13;0.95;;;23.40;99.90;;;;;;4874906;29;20773;-78
2021/07/06 06:42:32;;;;;;;1.00;1.00;;;23.60;99.90;;;;;;4891086;29;20418;-78
2021/07/06 06:44:57;;;;;;;1.60;0.98;;;23.70;99.90;;;;;;4888891;29;20427;-78
2021/07/06 06:47:23;;;;;;;1.00;1.00;;;23.70;99.90;;;;;;4889695;29;20427;-78
2021/07/06 06:49:49;;;;;;;2.67;0.90;;;23.70;99.90;;;;;;4890303;29;20566;-78
2021/07/06 06:52:14;;;;;;;2.00;1.00;;;23.90;99.90;;;;;;4875143;29;20407;-79
2021/07/06 06:54:40;;;;;;;1.10;1.00;;;24.10;99.90;;;;;;4897087;29;20414;-79
2021/07/06 06:57:06;;;;;;;1.00;1.00;;;24.00;99.90;;;;;;4874829;29;20890;-79
2021/07/06 06:59:32;;;;;;;0.98;0.93;;;24.20;99.90;;;;;;4875007;29;20415;-78
2021/07/06 07:04:42;;;;;;;1.10;1.00;;;24.50;99.90;;;;;;4889892;29;20473;-78
2021/07/06 07:07:07;;;;;;;0.95;0.90;;;24.50;99.90;;;;;;4873993;29;20944;-78
2021/07/06 07:09:33;;;;;;;0.70;0.70;;;24.70;99.90;;;;;;4874519;29;20418;-79
2021/07/06 07:11:59;;;;;;;0.70;0.70;;;25.00;99.90;;;;;;4890679;29;20411;-78
2021/07/06 07:14:25;;;;;;;0.90;0.60;;;25.30;99.90;;;;;;4889779;29;20789;-78
2021/07/06 07:16:51;;;;;;;0.80;0.80;;;25.40;99.90;;;;;;4889558;29;20824;-78
2021/07/06 07:19:17;;;;;;;0.77;0.77;;;25.70;99.90;;;;;;4909172;29;20426;-79
2021/07/06 07:21:42;;;;;;;0.68;0.68;;;25.70;99.90;;;;;;4893667;29;20407;-79
2021/07/06 07:24:08;;;;;;;0.70;0.70;;;25.80;99.90;;;;;;4894230;29;20490;-79
2021/07/06 07:26:34;;;;;;;9.88;9.02;;;25.90;99.90;;;;;;4908931;29;21120;-78
2021/07/06 07:29:02;;;;;;;1.37;1.30;;;26.10;99.90;;;;;;4878167;29;20411;-78
2021/07/06 07:31:28;;;;;;;1.00;0.80;;;26.30;99.90;;;;;;4894668;29;20411;-76
2021/07/06 07:33:54;;;;;;;0.80;0.80;;;26.40;99.90;;;;;;4894798;29;20407;-78
2021/07/06 07:36:19;;;;;;;0.70;0.70;;;26.40;99.90;;;;;;4893743;29;20402;-78
2021/07/06 07:38:45;;;;;;;0.60;0.60;;;26.50;99.90;;;;;;4906031;29;20404;-78
2021/07/06 07:41:11;;;;;;;0.52;0.52;;;26.50;99.90;;;;;;4918769;29;20463;-78
2021/07/06 07:43:37;;;;;;;0.60;0.60;;;26.80;99.90;;;;;;4893668;29;20391;-78
2021/07/06 07:46:02;;;;;;;0.83;0.83;;;26.80;99.90;;;;;;4907938;29;20415;-79
2021/07/06 07:48:28;;;;;;;0.80;0.80;;;26.80;99.90;;;;;;4893719;29;20411;-78
2021/07/06 07:50:54;;;;;;;0.68;0.68;;;26.80;99.90;;;;;;4878281;29;20399;-78
2021/07/06 07:53:19;;;;;;;0.77;0.77;;;27.20;99.90;;;;;;4893317;29;20399;-80
2021/07/06 07:55:45;;;;;;;1.57;1.47;;;27.40;99.90;;;;;;4877373;29;20403;-78
2021/07/06 07:58:11;;;;;;;1.15;1.10;;;27.60;99.90;;;;;;4893646;29;20896;-79
2021/07/06 08:00:37;;;;;;;1.30;1.30;;;27.50;99.90;;;;;;4870567;29;20418;-77
2021/07/06 08:03:02;;;;;;;0.70;0.70;;;27.50;99.90;;;;;;4862858;29;21159;-79
2021/07/06 08:05:28;;;;;;;0.70;0.70;;;27.50;99.90;;;;;;4877496;29;20411;-78
2021/07/06 08:07:54;;;;;;;0.73;0.73;;;27.60;99.90;;;;;;4892617;29;20395;-80
2021/07/06 08:10:19;;;;;;;0.60;0.60;;;27.50;99.90;;;;;;4893282;29;20411;-78
2021/07/06 08:12:45;;;;;;;0.60;0.60;;;27.50;99.90;;;;;;4877604;29;20426;-78
2021/07/06 08:15:11;;;;;;;0.77;0.77;;;27.60;99.90;;;;;;4877211;29;20395;-79
2021/07/06 08:17:37;;;;;;;0.70;0.70;;;27.60;99.90;;;;;;4893686;29;20564;-78
2021/07/06 08:20:04;;;;;;;0.60;0.60;;;28.00;99.90;;;;;;4877253;29;20882;-78
2021/07/06 08:22:30;;;;;;;0.80;0.80;;;28.30;99.90;;;;;;4878129;29;20423;-79
2021/07/06 08:24:56;;;;;;;0.70;0.70;;;28.10;99.90;;;;;;4877008;29;20453;-78
2021/07/06 08:27:21;;;;;;;0.80;0.80;;;28.20;99.90;;;;;;4892849;29;20486;-81
2021/07/06 08:29:47;;;;;;;0.75;0.75;;;28.50;99.90;;;;;;4877376;29;20407;-78
2021/07/06 08:32:13;;;;;;;0.63;0.63;;;28.60;99.90;;;;;;4891175;29;20780;-80
2021/07/06 08:34:39;;;;;;;0.65;0.65;;;28.70;99.90;;;;;;4877385;29;20454;-79
2021/07/06 08:37:04;;;;;;;0.60;0.60;;;28.70;99.90;;;;;;4877771;29;20419;-79
2021/07/06 08:39:30;;;;;;;0.60;0.60;;;28.60;99.90;;;;;;4891995;29;20399;-79
2021/07/06 08:41:57;;;;;;;0.50;0.50;;;28.80;99.90;;;;;;4877068;29;21026;-79
2021/07/06 08:44:23;;;;;;;0.68;0.68;;;29.00;99.90;;;;;;4878603;29;20422;-80
2021/07/06 08:46:49;;;;;;;0.82;0.60;;;29.00;99.90;;;;;;4883110;29;20488;-77
2021/07/06 08:49:15;;;;;;;1.25;0.95;;;29.00;99.90;;;;;;4864708;29;20407;-77
2021/07/06 08:51:41;;;;;;;1.17;0.90;;;29.10;99.90;;;;;;4876519;29;20550;-77
2021/07/06 08:54:07;;;;;;;0.90;0.80;;;29.20;99.90;;;;;;4876193;29;21017;-76
2021/07/06 08:56:32;;;;;;;1.20;1.00;;;29.50;99.90;;;;;;4876478;29;20472;-77
2021/07/06 08:58:58;;;;;;;0.80;0.80;;;29.80;99.90;;;;;;4875937;29;20415;-78
2021/07/06 09:01:28;;;;;;;0.80;0.80;;;29.50;99.90;;;;;;4875490;29;20414;-80
2021/07/06 09:04:01;;;;;;;2.53;0.90;;;29.40;99.90;;;;;;4892503;29;20431;-79
2021/07/06 09:06:29;;;;;;;0.90;0.90;;;29.90;99.90;;;;;;4894811;29;20437;-82
2021/07/06 09:09:18;;;;;;;0.95;0.95;;;30.10;99.90;;;;;;4895419;29;20437;-78
2021/07/06 09:11:47;;;;;;;0.90;0.90;;;30.10;99.90;;;;;;4893876;29;20403;-83
2021/07/06 09:14:14;;;;;;;0.60;0.60;;;30.10;99.90;;;;;;4907594;29;20411;-78
2021/07/06 09:16:40;;;;;;;0.77;0.77;;;30.10;99.90;;;;;;4891397;29;20435;-78
2021/07/06 09:19:22;;;;;;;0.90;0.90;;;30.20;99.90;;;;;;4891516;29;20783;-79
2021/07/06 09:21:48;;;;;;;0.63;0.63;;;30.50;99.90;;;;;;4892022;29;20486;-79
2021/07/06 09:24:23;;;;;;;0.70;0.70;;;30.50;99.90;;;;;;4890350;29;20481;-80
2021/07/06 09:26:48;;;;;;;0.70;0.70;;;30.80;99.90;;;;;;4891006;29;20426;-80
2021/07/06 09:29:16;;;;;;;0.70;0.70;;;31.10;99.90;;;;;;4873472;29;20413;-77
2021/07/06 09:31:42;;;;;;;0.50;0.50;;;30.80;98.80;;;;;;4887710;29;20405;-77
2021/07/06 09:34:09;;;;;;;0.70;0.70;;;31.00;99.20;;;;;;4887642;29;20408;-77
2021/07/06 09:36:41;;;;;;;0.70;0.70;;;30.90;96.80;;;;;;4888006;29;20417;-78
2021/07/06 09:39:13;;;;;;;0.70;0.70;;;31.40;99.70;;;;;;4886737;29;20416;-77
2021/07/06 09:41:41;;;;;;;0.77;0.77;;;31.80;98.60;;;;;;4859407;29;20399;-77
2021/07/06 09:44:17;;;;;;;0.70;0.70;;;32.00;98.90;;;;;;4902901;29;20433;-78
2021/07/06 09:46:54;;;;;;;0.60;0.60;;;32.20;95.70;;;;;;4871788;29;20419;-78
2021/07/06 09:49:25;;;;;;;0.60;0.60;;;32.30;96.10;;;;;;4875828;29;20819;-77
2021/07/06 09:51:52;;;;;;;2.83;0.80;;;32.10;95.30;;;;;;4875570;29;20417;-77
2021/07/06 09:54:25;;;;;;;0.57;0.57;;;32.30;96.10;;;;;;4891859;29;20399;-78
2021/07/06 09:56:51;;;;;;;0.70;0.70;;;32.30;95.70;;;;;;4875912;29;20403;-78
2021/07/06 09:59:17;;;;;;;1.80;0.60;;;32.30;93.80;;;;;;4890545;29;20434;-77
2021/07/06 10:01:53;;;;;;;0.63;0.63;;;32.20;93.90;;;;;;4891311;29;21204;-77
2021/07/06 10:04:24;;;;;;;0.50;0.50;;;32.30;92.50;;;;;;4907148;29;20475;-77
2021/07/06 10:06:50;;;;;;;0.60;0.60;;;32.70;92.20;;;;;;4868042;29;21904;-77
2021/07/06 10:09:15;;;;;;;0.60;0.60;;;33.20;93.70;;;;;;4890335;29;20418;-77
2021/07/06 10:11:41;;;;;;;0.60;0.60;;;33.20;91.10;;;;;;4890721;29;20407;-78
2021/07/06 10:14:07;;;;;;;0.50;0.50;;;33.30;92.10;;;;;;4889981;29;20407;-77
2021/07/06 10:16:33;;;;;;;0.50;0.50;;;33.30;91.70;;;;;;4889465;29;20411;-77
2021/07/06 10:18:58;;;;;;;0.50;0.50;;;33.30;85.00;;;;;;4867442;29;20394;-77
2021/07/06 10:21:25;;;;;;;0.50;0.50;;;33.40;87.90;;;;;;4875569;29;20483;-78
2021/07/06 10:23:51;;;;;;;0.43;0.43;;;33.80;87.20;;;;;;4890819;29;20750;-77
2021/07/06 10:26:26;;;;;;;0.50;0.50;;;33.70;84.00;;;;;;4877093;29;20403;-80
2021/07/06 10:28:52;;;;;;;0.60;0.50;;;33.50;85.10;;;;;;4890469;29;20399;-79
2021/07/06 10:31:18;;;;;;;0.60;0.60;;;33.80;87.50;;;;;;4874851;29;20486;-78
2021/07/06 10:33:44;;;;;;;0.60;0.60;;;33.80;85.20;;;;;;4891525;29;20435;-77
2021/07/06 10:36:12;;;;;;;0.55;0.55;;;33.70;84.10;;;;;;4889949;29;20402;-80
2021/07/06 10:38:40;;;;;;;0.50;0.50;;;34.10;86.40;;;;;;4900836;29;20403;-78
2021/07/06 10:41:07;;;;;;;0.60;0.60;;;34.20;82.50;;;;;;4876544;29;20399;-78
2021/07/06 10:43:35;;;;;;;0.43;0.43;;;34.40;84.60;;;;;;4877603;29;20411;-79
2021/07/06 10:46:32;;;;;;;0.60;0.60;;;34.40;79.60;;;;;;4892044;29;20423;-79
2021/07/06 10:49:14;;;;;;;1.98;0.60;;;35.00;73.70;;;;;;4862799;29;20857;-79
2021/07/06 10:51:41;;;;;;;0.63;0.63;;;34.80;76.90;;;;;;4892880;29;20410;-79
2021/07/06 10:54:11;;;;;;;0.73;0.73;;;34.60;73.60;;;;;;4897827;29;20496;-79
2021/07/06 10:56:38;;;;;;;0.70;0.70;;;33.90;75.20;;;;;;4903684;29;20484;-79
2021/07/06 10:59:05;;;;;;;0.55;0.55;;;33.70;77.40;;;;;;4889542;29;20413;-81
2021/07/06 11:01:37;;;;;;;0.70;0.70;;;34.00;75.70;;;;;;4875737;29;20440;-80
2021/07/06 11:04:06;;;;;;;0.70;0.70;;;34.10;75.20;;;;;;4893405;29;20420;-79
2021/07/06 11:06:44;;;;;;;0.50;0.50;;;34.30;75.30;;;;;;4902911;29;20490;-81
2021/07/06 11:09:10;;;;;;;0.50;0.50;;;34.80;73.10;;;;;;4894579;29;20818;-82
2021/07/06 11:11:36;;;;;;;0.60;0.60;;;34.40;72.30;;;;;;4896870;29;20403;-81
2021/07/06 11:14:21;;;;;;;0.52;0.52;;;34.40;73.10;;;;;;4896808;29;20410;-81
2021/07/06 11:16:56;;;;;;;0.60;0.60;;;34.80;73.30;;;;;;4896166;29;20435;-83
2021/07/06 11:19:36;;;;;;;0.50;0.50;;;35.20;71.50;;;;;;4897240;29;20403;-84
2021/07/06 11:22:12;;;;;;;0.70;0.70;;;35.50;68.50;;;;;;4862029;29;20476;-82
2021/07/06 11:24:48;;;;;;;3.00;0.63;;;35.30;71.70;;;;;;4864612;29;20946;-80
2021/07/06 11:27:15;;;;;;;0.70;0.70;;;35.90;69.50;;;;;;4891216;29;20403;-81
2021/07/06 11:29:42;;;;;;;0.60;0.60;;;35.00;68.20;;;;;;4907152;29;20425;-81
2021/07/06 11:32:15;;;;;;;0.70;0.70;;;35.10;70.30;;;;;;4912165;29;20411;-79
2021/07/06 11:34:41;;;;;;;1.00;0.82;;;35.20;67.80;;;;;;4895305;29;20487;-82
2021/07/06 11:37:14;;;;;;;0.60;0.60;;;35.30;69.30;;;;;;4897162;29;20490;-83
2021/07/06 11:39:40;;;;;;;1.90;0.80;;;35.20;68.50;;;;;;4904110;29;20414;-82
2021/07/06 11:42:06;;;;;;;0.50;0.50;;;35.10;67.80;;;;;;4896442;29;20474;-82
2021/07/06 11:44:32;;;;;;;0.60;0.60;;;35.20;69.60;;;;;;4897291;29;20494;-80
2021/07/06 11:47:11;;;;;;;0.60;0.60;;;35.60;68.00;;;;;;4896447;29;20423;-82
2021/07/06 11:49:37;;;;;;;0.60;0.60;;;35.80;70.70;;;;;;4897285;29;20435;-79
2021/07/06 11:52:03;;;;;;;0.60;0.60;;;36.30;67.80;;;;;;4897293;29;20403;-81
2021/07/06 11:54:28;;;;;;;0.60;0.60;;;36.00;67.30;;;;;;4899829;29;20486;-81
2021/07/06 11:57:07;;;;;;;0.60;0.60;;;35.60;68.10;;;;;;4922260;29;20551;-80
2021/07/06 11:59:34;;;;;;;0.57;0.57;;;35.40;63.50;;;;;;4894406;29;20431;-81
2021/07/06 12:02:09;;;;;;;0.65;0.65;;;35.50;66.60;;;;;;4896890;29;20403;-84
2021/07/06 12:04:35;;;;;;;0.60;0.60;;;35.80;66.10;;;;;;4910047;29;20421;-81
2021/07/06 12:07:08;;;;;;;0.68;0.68;;;36.30;67.40;;;;;;4897632;29;20482;-81
2021/07/06 12:09:34;;;;;;;0.68;0.68;;;36.30;64.10;;;;;;4903261;29;20432;-81
2021/07/06 12:12:26;;;;;;;0.60;0.60;;;36.00;62.80;;;;;;4897455;29;20415;-82
2021/07/06 12:14:52;;;;;;;0.70;0.70;;;35.40;62.40;;;;;;4879859;29;20439;-82
2021/07/06 12:17:27;;;;;;;0.45;0.45;;;35.60;61.10;;;;;;4896028;29;20410;-79
2021/07/06 12:19:53;;;;;;;0.55;0.55;;;36.10;61.70;;;;;;4894719;29;20419;-80
2021/07/06 12:22:20;;;;;;;1.53;0.67;;;36.10;62.80;;;;;;4881351;29;20399;-80
2021/07/06 12:24:46;;;;;;;0.70;0.65;;;35.80;62.10;;;;;;4880017;29;20441;-81
2021/07/06 12:27:14;;;;;;;0.80;0.80;;;35.40;61.90;;;;;;4881469;29;20458;-82
2021/07/06 12:29:40;;;;;;;0.70;0.70;;;35.20;62.50;;;;;;4881559;29;20438;-80
2021/07/06 12:32:13;;;;;;;0.68;0.68;;;35.50;66.00;;;;;;4895755;29;21035;-81
2021/07/06 12:34:40;;;;;;;0.60;0.60;;;35.90;62.80;;;;;;4896048;29;20896;-82
2021/07/06 12:37:08;;;;;;;0.60;0.60;;;36.40;64.20;;;;;;4896837;29;20419;-80
2021/07/06 12:39:34;;;;;;;0.60;0.60;;;36.60;60.50;;;;;;4887585;29;20403;-80
2021/07/06 12:42:21;;;;;;;1.25;0.80;;;36.60;62.40;;;;;;4896074;29;20772;-79
2021/07/06 12:44:54;;;;;;;0.80;0.80;;;36.80;66.10;;;;;;4889796;29;20504;-85
2021/07/06 12:47:30;;;;;;;0.70;0.70;;;36.40;61.90;;;;;;4872309;29;20520;-79
2021/07/06 12:49:58;;;;;;;0.93;0.87;;;36.50;63.30;;;;;;4878213;29;20410;-78